createdAt,value
2024-01-15T00:04:29.706Z,4.57
2024-01-15T00:09:36.729Z,4.93
2024-01-15T00:14:44.862Z,4.85
2024-01-15T00:19:51.101Z,4.47
2024-01-15T00:24:57.544Z,4.47
2024-01-15T00:30:06.215Z,4.55
2024-01-15T00:35:12.977Z,4.65
2024-01-15T00:40:19.301Z,4.25
2024-01-15T00:45:27.292Z,4.35
2024-01-15T00:50:33.675Z,4.37
2024-01-15T00:55:40.157Z,5.28
2024-01-15T01:00:48.334Z,4.65
2024-01-15T01:05:55.026Z,4.22
2024-01-15T01:11:01.280Z,4.00
2024-01-15T01:16:10.110Z,4.75
2024-01-15T01:21:16.574Z,4.97
2024-01-15T01:26:23.389Z,4.55
2024-01-15T01:31:31.400Z,4.97
2024-01-15T01:36:38.059Z,4.83
2024-01-15T01:41:44.430Z,4.63
2024-01-15T01:46:52.403Z,5.20
2024-01-15T01:52:02.776Z,5.47
2024-01-15T01:57:14.020Z,5.65
2024-01-15T02:02:23.330Z,5.60
2024-01-15T02:07:30.347Z,6.85
2024-01-15T02:12:37.275Z,5.28
2024-01-15T02:18:04.970Z,5.90
2024-01-15T02:23:15.236Z,6.20
2024-01-15T02:28:21.810Z,6.05
2024-01-15T02:33:28.382Z,6.15
2024-01-15T02:38:36.255Z,4.68
2024-01-15T02:43:42.609Z,5.60
2024-01-15T02:48:49.093Z,5.00
2024-01-15T02:53:57.466Z,5.38
2024-01-15T02:59:05.372Z,5.70
2024-01-15T03:04:11.861Z,5.25
2024-01-15T03:09:19.731Z,5.65
2024-01-15T03:14:27.583Z,6.00
2024-01-15T03:19:33.919Z,4.70
2024-01-15T03:24:41.544Z,5.82
2024-01-15T03:29:47.727Z,5.28
2024-01-15T03:34:54.208Z,5.63
2024-01-15T03:40:05.860Z,5.45
2024-01-15T03:45:12.561Z,6.13
2024-01-15T03:50:19.039Z,5.55
2024-01-15T03:55:26.832Z,5.53
2024-01-15T04:00:33.293Z,7.20
2024-01-15T04:05:39.525Z,6.70
2024-01-15T04:10:47.271Z,5.97
2024-01-15T04:15:53.699Z,7.07
2024-01-15T04:21:00.004Z,5.50
2024-01-15T04:26:08.049Z,5.47
2024-01-15T04:31:25.939Z,4.17
2024-01-15T04:36:32.296Z,6.20
2024-01-15T04:41:40.103Z,5.60
2024-01-15T04:46:46.428Z,5.65
2024-01-15T04:51:52.903Z,5.20
2024-01-15T04:57:02.284Z,5.43
2024-01-15T05:02:08.836Z,5.03
2024-01-15T05:07:15.114Z,5.75
2024-01-15T05:12:22.762Z,5.07
2024-01-15T05:17:28.929Z,5.00
2024-01-15T05:22:35.269Z,5.18
2024-01-15T05:27:43.109Z,5.15
2024-01-15T05:32:49.468Z,4.82
2024-01-15T05:37:56.049Z,5.30
2024-01-15T05:43:03.776Z,5.65
2024-01-15T05:48:10.164Z,4.68
2024-01-15T05:53:16.746Z,5.35
2024-01-15T05:58:24.385Z,5.07
2024-01-15T06:03:30.986Z,5.28
2024-01-15T06:08:37.708Z,5.38
2024-01-15T06:13:45.461Z,5.22
2024-01-15T06:18:51.726Z,5.50
2024-01-15T06:24:00.220Z,5.00
2024-01-15T06:29:07.842Z,5.13
2024-01-15T06:34:14.245Z,6.32
2024-01-15T06:39:20.632Z,5.22
2024-01-15T06:44:29.023Z,5.03
2024-01-15T06:49:35.278Z,4.90
2024-01-15T06:54:41.387Z,5.03
2024-01-15T06:59:49.024Z,4.60
2024-01-15T07:04:55.196Z,4.88
2024-01-15T07:10:01.759Z,4.47
2024-01-15T07:15:12.014Z,4.70
2024-01-15T07:20:20.847Z,5.45
2024-01-15T07:30:35.456Z,4.25
2024-01-15T07:35:41.918Z,4.70
2024-01-15T07:40:50.894Z,4.75
2024-01-15T07:45:59.134Z,4.50
2024-01-15T07:51:05.664Z,4.67
2024-01-15T07:56:13.392Z,4.57
2024-01-15T08:01:22.063Z,4.57
2024-01-15T08:06:28.538Z,3.83
2024-01-15T08:11:35.614Z,3.97
2024-01-15T08:16:45.197Z,3.60
2024-01-15T08:21:51.612Z,6.25
2024-01-15T08:26:57.995Z,3.30
2024-01-15T08:32:06.032Z,3.53
2024-01-15T08:37:12.378Z,3.10
2024-01-15T08:42:18.561Z,3.53
2024-01-15T08:47:27.407Z,3.80
2024-01-15T08:57:39.547Z,4.10
2024-01-15T09:02:47.793Z,4.05
2024-01-15T09:07:54.444Z,5.15
2024-01-15T09:13:01.800Z,4.90
2024-01-15T09:18:09.825Z,4.05
2024-01-15T09:23:16.230Z,4.07
2024-01-15T09:28:22.640Z,3.88
2024-01-15T09:33:30.648Z,4.35
2024-01-15T09:38:37.026Z,3.80
2024-01-15T09:43:43.744Z,3.20
2024-01-15T09:48:51.500Z,3.97
2024-01-15T09:54:00.082Z,3.92
2024-01-15T09:59:06.864Z,3.47
2024-01-15T10:04:15.528Z,4.00
2024-01-15T10:09:22.422Z,3.88
2024-01-15T10:14:28.621Z,4.00
2024-01-15T10:19:36.605Z,3.92
2024-01-15T10:24:44.477Z,3.83
2024-01-15T10:29:50.966Z,4.53
2024-01-15T10:34:59.601Z,4.15
2024-01-15T10:40:07.754Z,4.35
2024-01-15T10:45:14.045Z,3.07
2024-01-15T10:50:22.464Z,4.18
2024-01-15T10:55:30.454Z,4.55
2024-01-15T11:00:41.087Z,3.90
2024-01-15T11:05:50.275Z,4.25
2024-01-15T11:16:05.854Z,4.03
2024-01-15T11:21:31.437Z,3.92
2024-01-15T11:26:40.714Z,3.85
2024-01-15T11:32:19.162Z,4.40
2024-01-15T11:37:28.947Z,4.28
2024-01-15T11:42:44.524Z,3.42
2024-01-15T11:48:17.599Z,3.72
2024-01-15T11:53:39.647Z,4.47
2024-01-15T11:58:48.306Z,3.63
2024-01-15T12:03:54.852Z,5.30
2024-01-15T12:09:11.775Z,4.00
2024-01-15T12:14:18.229Z,4.50
2024-01-15T12:19:25.845Z,4.43
2024-01-15T12:24:33.943Z,4.15
2024-01-15T12:29:41.794Z,4.28
2024-01-15T12:34:48.235Z,3.80
2024-01-15T12:39:56.806Z,4.28
2024-01-15T12:45:04.923Z,3.67
2024-01-15T12:50:20.076Z,4.20
2024-01-15T12:55:29.972Z,3.40
2024-01-15T13:00:36.224Z,3.63
2024-01-15T13:05:43.881Z,3.90
2024-01-15T13:10:53.348Z,3.72
2024-01-15T13:15:59.529Z,3.45
2024-01-15T13:21:06.114Z,3.35
2024-01-15T13:26:17.421Z,3.03
2024-01-15T13:31:24.293Z,3.70
2024-01-15T13:36:30.686Z,4.05
2024-01-15T13:41:39.097Z,4.50
2024-01-15T13:46:45.672Z,4.07
2024-01-15T13:51:52.261Z,3.83
2024-01-15T13:57:00.528Z,3.47
2024-01-15T14:02:07.824Z,3.23
2024-01-15T14:07:14.356Z,3.78
2024-01-15T14:12:22.164Z,3.38
2024-01-15T14:17:28.308Z,3.90
2024-01-15T14:22:34.656Z,3.17
2024-01-15T14:27:42.764Z,3.42
2024-01-15T14:32:49.549Z,2.83
2024-01-15T14:37:56.024Z,3.38
2024-01-15T14:43:04.772Z,4.03
2024-01-15T14:48:11.400Z,3.90
2024-01-15T14:53:18.636Z,4.03
2024-01-15T14:58:26.724Z,3.50
2024-01-15T15:03:34.357Z,3.97
2024-01-15T15:08:40.995Z,3.90
2024-01-15T15:13:49.201Z,3.50
2024-01-15T15:18:56.429Z,2.90
2024-01-15T15:24:03.639Z,3.22
2024-01-15T15:29:12.605Z,2.88
2024-01-15T15:34:19.731Z,3.25
2024-01-15T15:39:26.731Z,3.35
2024-01-15T15:44:34.749Z,4.53
2024-01-15T15:49:41.407Z,3.50
2024-01-15T15:54:48.489Z,3.60
2024-01-15T15:59:56.686Z,3.40
2024-01-15T16:05:06.581Z,3.53
2024-01-15T16:10:13.540Z,3.10
2024-01-15T16:15:25.932Z,2.47
2024-01-15T16:23:31.031Z,2.03
2024-01-15T16:25:59.882Z,1.95
2024-01-15T16:31:09.639Z,1.52
2024-01-15T16:36:23.942Z,1.20
2024-01-15T16:41:31.522Z,1.35
2024-01-15T16:46:39.478Z,1.20
2024-01-15T16:51:45.862Z,1.23
2024-01-15T16:56:53.069Z,1.08
2024-01-15T17:02:01.112Z,1.05
2024-01-15T17:07:07.574Z,0.90
2024-01-15T17:12:14.171Z,1.40
2024-01-15T17:17:23.056Z,1.38
2024-01-15T17:22:30.613Z,1.50
2024-01-15T17:27:37.466Z,0.95
2024-01-15T17:32:45.448Z,1.30
2024-01-15T17:37:51.907Z,1.70
2024-01-15T17:42:58.389Z,1.33
2024-01-15T17:48:07.487Z,1.33
2024-01-15T17:53:14.347Z,1.08
2024-01-15T17:58:21.109Z,1.10
2024-01-15T18:03:29.951Z,0.80
2024-01-15T18:13:47.129Z,1.27
2024-01-15T18:18:55.502Z,1.30
2024-01-15T18:24:02.107Z,0.90
2024-01-15T18:29:08.597Z,1.20
2024-01-15T18:34:16.633Z,1.60
2024-01-15T18:39:23.554Z,1.38
2024-01-15T18:44:30.944Z,1.40
2024-01-15T18:49:39.072Z,1.58
2024-01-15T18:54:45.464Z,0.90
2024-01-15T18:59:52.705Z,1.35
2024-01-15T19:05:00.695Z,2.17
2024-01-15T19:10:08.495Z,1.20
2024-01-15T19:15:16.834Z,1.02
2024-01-15T19:20:26.191Z,1.40
2024-01-15T19:25:32.975Z,1.07
2024-01-15T19:30:39.841Z,1.08
2024-01-15T19:35:48.562Z,1.10
2024-01-15T19:40:55.055Z,1.45
2024-01-15T19:46:01.720Z,1.13
2024-01-15T19:51:16.225Z,0.90
2024-01-15T19:56:23.049Z,1.23
2024-01-15T20:01:32.145Z,0.95
2024-01-15T20:06:40.453Z,1.10
2024-01-15T20:11:48.435Z,1.10
2024-01-15T20:16:55.020Z,1.03
2024-01-15T20:22:02.646Z,1.00
2024-01-15T20:27:09.139Z,0.90
2024-01-15T20:32:18.422Z,1.00
2024-01-15T20:37:25.995Z,1.15
2024-01-15T20:42:32.703Z,0.95
2024-01-15T20:47:39.519Z,1.10
2024-01-15T20:52:47.305Z,0.95
2024-01-15T20:57:53.801Z,1.10
2024-01-15T21:03:00.578Z,1.00
2024-01-15T21:08:09.838Z,0.88
2024-01-15T21:18:23.216Z,1.02
2024-01-15T21:23:32.728Z,1.10
2024-01-15T21:28:41.688Z,1.30
2024-01-15T21:33:48.439Z,1.02
2024-01-15T21:38:56.382Z,1.30
2024-01-15T21:44:07.874Z,1.30
2024-01-15T21:49:14.529Z,1.20
2024-01-15T21:54:22.367Z,0.90
2024-01-15T21:59:30.644Z,0.73
2024-01-15T22:04:39.020Z,1.00
2024-01-15T22:09:46.669Z,1.00
2024-01-15T22:14:53.030Z,1.10
2024-01-15T22:19:59.572Z,1.55
2024-01-15T22:25:08.980Z,1.25
2024-01-15T22:30:15.486Z,1.38
2024-01-15T22:35:21.714Z,1.02
2024-01-15T22:40:29.491Z,1.10
2024-01-15T22:45:35.898Z,0.98
2024-01-15T22:50:42.715Z,0.90
2024-01-15T22:55:50.526Z,0.85
2024-01-15T23:00:58.908Z,0.90
2024-01-15T23:06:05.451Z,0.90
2024-01-15T23:11:14.325Z,0.93
2024-01-15T23:16:21.714Z,1.02
2024-01-15T23:21:29.056Z,0.68
2024-01-15T23:26:36.728Z,1.00
2024-01-15T23:31:43.248Z,0.98
2024-01-15T23:36:49.506Z,0.73
2024-01-15T23:41:57.102Z,1.20
2024-01-15T23:47:03.510Z,0.80
2024-01-15T23:52:09.818Z,0.80
2024-01-15T23:57:18.153Z,1.05
